KSKF/SKF METAR and TAF weather

Enter ICAO airport designator
Station Type Date Time Source
KSKF METAR 2021/03/08 01:56 UTC NOAA

KSKF 080156Z AUTO 13007KT 10SM OVC065 19/06 A3030 RMK AO2 SLP260 T01860061 $


Station Type Date Time Source
KSKF Decoded METAR 2021/03/08 01:56 UTC NOAA

Kelly Air Force Base, TX, United States (KSKF) 29-23N 098-35W
Mar 07, 2021 - 08:56 PM EST / 2021.03.08 0156 UTC
Wind: from the SE (130 degrees) at 8 MPH (7 KT):0
Visibility: 10 mile(s):0
Sky conditions: overcast
Temperature: 65.5 F (18.6 C)
Dew Point: 43.0 F (6.1 C)
Relative Humidity: 43%
Pressure (altimeter): 30.3 in. Hg (1026 hPa)
ob: KSKF 080156Z AUTO 13007KT 10SM OVC065 19/06 A3030 RMK AO2 SLP260 T01860061
cycle: 2

Station Type Date Time Source
KSKF TAF 2021/03/08 02:20 UTC NOAA

TAF KSKF 080200Z 0802/0908 14007KT 9999 OVC060 QNH3028INS
BECMG 0809/0810 10005KT 9999 SCT015 OVC020 QNH3034INS
TEMPO 0811/0814 BKN015
BECMG 0815/0816 13008KT 9999 FEW015 BKN025 QNH3036INS
BECMG 0817/0818 13010G15KT 9999 BKN035 QNH3025INS TX22/0821Z TN09/0810Z LAST NO
AMDS AFT 0805 NEXT 0810

Example: see airport list